sensor_id;sensor_type;location;lat;lon;timestamp;pressure;altitude;pressure_sealevel;temperature;humidity
55687;BME280;41911;52.362;4.978;2023-03-17T00:01:26;100741.26;;;9.73;36.51
55687;BME280;41911;52.362;4.978;2023-03-17T00:01:57;100739.21;;;9.42;36.22
55687;BME280;41911;52.362;4.978;2023-03-17T00:02:28;100737.07;;;9.74;36.33
55687;BME280;41911;52.362;4.978;2023-03-17T00:02:59;100745.32;;;9.82;36.12
55687;BME280;41911;52.362;4.978;2023-03-17T00:03:35;100743.98;;;9.77;36.20
55687;BME280;41911;52.362;4.978;2023-03-17T00:04:10;100744.95;;;9.55;36.45
55687;BME280;41911;52.362;4.978;2023-03-17T00:04:41;100742.92;;;9.41;36.65
55687;BME280;41911;52.362;4.978;2023-03-17T00:05:16;100744.60;;;9.31;36.46
55687;BME280;41911;52.362;4.978;2023-03-17T00:05:48;100744.45;;;9.65;36.56
55687;BME280;41911;52.362;4.978;2023-03-17T00:06:23;100749.99;;;9.77;36.33
55687;BME280;41911;52.362;4.978;2023-03-17T00:06:58;100747.44;;;9.44;36.23
55687;BME280;41911;52.362;4.978;2023-03-17T00:07:29;100748.19;;;9.65;36.32
55687;BME280;41911;52.362;4.978;2023-03-17T00:08:08;100744.66;;;9.57;36.47
55687;BME280;41911;52.362;4.978;2023-03-17T00:08:40;100742.87;;;9.50;36.72
55687;BME280;41911;52.362;4.978;2023-03-17T00:09:12;100744.96;;;9.69;36.43
55687;BME280;41911;52.362;4.978;2023-03-17T00:09:43;100744.26;;;9.80;36.21
55687;BME280;41911;52.362;4.978;2023-03-17T00:10:16;100743.56;;;9.58;36.38
55687;BME280;41911;52.362;4.978;2023-03-17T00:10:50;100745.96;;;9.09;36.51
55687;BME280;41911;52.362;4.978;2023-03-17T00:11:22;100744.11;;;9.38;36.51
55687;BME280;41911;52.362;4.978;2023-03-17T00:11:53;100746.31;;;9.17;36.88
55687;BME280;41911;52.362;4.978;2023-03-17T00:12:24;100743.72;;;8.82;37.20
55687;BME280;41911;52.362;4.978;2023-03-17T00:12:55;100745.57;;;9.20;36.92
55687;BME280;41911;52.362;4.978;2023-03-17T00:13:27;100746.21;;;9.36;36.81
55687;BME280;41911;52.362;4.978;2023-03-17T00:13:59;100745.21;;;9.45;36.61
55687;BME280;41911;52.362;4.978;2023-03-17T00:14:30;100746.51;;;9.49;36.65
55687;BME280;41911;52.362;4.978;2023-03-17T00:15:01;100750.12;;;9.23;36.57
55687;BME280;41911;52.362;4.978;2023-03-17T00:15:32;100747.69;;;9.74;36.58
55687;BME280;41911;52.362;4.978;2023-03-17T00:16:05;100750.88;;;9.33;36.87
55687;BME280;41911;52.362;4.978;2023-03-17T00:16:41;100752.05;;;9.26;36.63
55687;BME280;41911;52.362;4.978;2023-03-17T00:17:13;100749.55;;;8.85;36.92
55687;BME280;41911;52.362;4.978;2023-03-17T00:17:45;100748.44;;;9.18;36.84
55687;BME280;41911;52.362;4.978;2023-03-17T00:18:17;100747.52;;;9.36;36.81
55687;BME280;41911;52.362;4.978;2023-03-17T00:18:49;100744.92;;;9.21;36.84
55687;BME280;41911;52.362;4.978;2023-03-17T00:19:28;100745.25;;;9.25;36.92
55687;BME280;41911;52.362;4.978;2023-03-17T00:19:59;100744.84;;;9.34;36.89
55687;BME280;41911;52.362;4.978;2023-03-17T00:20:31;100745.86;;;9.30;36.78
55687;BME280;41911;52.362;4.978;2023-03-17T00:21:02;100740.98;;;8.92;37.18
55687;BME280;41911;52.362;4.978;2023-03-17T00:21:34;100743.32;;;8.56;37.25
55687;BME280;41911;52.362;4.978;2023-03-17T00:22:13;100736.60;;;8.94;37.05
55687;BME280;41911;52.362;4.978;2023-03-17T00:22:45;100736.73;;;9.14;37.00
55687;BME280;41911;52.362;4.978;2023-03-17T00:23:19;100735.06;;;9.15;37.14
55687;BME280;41911;52.362;4.978;2023-03-17T00:23:55;100732.86;;;9.10;36.72
55687;BME280;41911;52.362;4.978;2023-03-17T00:24:27;100734.47;;;9.13;36.96
55687;BME280;41911;52.362;4.978;2023-03-17T00:24:58;100733.88;;;9.06;37.24
55687;BME280;41911;52.362;4.978;2023-03-17T00:25:31;100734.66;;;8.78;37.25
55687;BME280;41911;52.362;4.978;2023-03-17T00:26:02;100732.73;;;9.02;37.04
55687;BME280;41911;52.362;4.978;2023-03-17T00:26:35;100729.96;;;9.02;37.34
55687;BME280;41911;52.362;4.978;2023-03-17T00:27:10;100725.40;;;8.93;37.05
55687;BME280;41911;52.362;4.978;2023-03-17T00:27:41;100726.39;;;8.75;37.26
55687;BME280;41911;52.362;4.978;2023-03-17T00:28:18;100723.85;;;8.73;37.40
55687;BME280;41911;52.362;4.978;2023-03-17T00:28:49;100722.16;;;8.89;37.30
55687;BME280;41911;52.362;4.978;2023-03-17T00:29:20;100722.69;;;8.98;37.09
55687;BME280;41911;52.362;4.978;2023-03-17T00:29:51;100721.77;;;9.01;36.93
55687;BME280;41911;52.362;4.978;2023-03-17T00:30:23;100717.39;;;9.10;36.86
55687;BME280;41911;52.362;4.978;2023-03-17T00:30:56;100716.65;;;9.38;37.05
55687;BME280;41911;52.362;4.978;2023-03-17T00:31:28;100713.82;;;9.60;37.23
55687;BME280;41911;52.362;4.978;2023-03-17T00:32:00;100711.34;;;8.91;37.27
55687;BME280;41911;52.362;4.978;2023-03-17T00:32:31;100706.01;;;8.85;37.10
55687;BME280;41911;52.362;4.978;2023-03-17T00:33:03;100708.72;;;8.78;37.50
55687;BME280;41911;52.362;4.978;2023-03-17T00:33:35;100704.60;;;8.71;37.36
55687;BME280;41911;52.362;4.978;2023-03-17T00:34:08;100703.62;;;8.77;37.43
55687;BME280;41911;52.362;4.978;2023-03-17T00:34:40;100701.77;;;8.80;37.41
55687;BME280;41911;52.362;4.978;2023-03-17T00:35:18;100699.92;;;8.95;37.27
55687;BME280;41911;52.362;4.978;2023-03-17T00:35:50;100703.31;;;8.87;37.35
55687;BME280;41911;52.362;4.978;2023-03-17T00:36:23;100703.77;;;8.91;37.20
55687;BME280;41911;52.362;4.978;2023-03-17T00:36:55;100703.79;;;8.93;37.28
55687;BME280;41911;52.362;4.978;2023-03-17T00:37:26;100705.82;;;9.28;37.23
55687;BME280;41911;52.362;4.978;2023-03-17T00:37:57;100708.61;;;9.37;37.14
55687;BME280;41911;52.362;4.978;2023-03-17T00:38:28;100708.79;;;9.12;37.00
55687;BME280;41911;52.362;4.978;2023-03-17T00:38:59;100707.33;;;8.87;37.44
55687;BME280;41911;52.362;4.978;2023-03-17T00:39:30;100710.47;;;8.73;37.31
55687;BME280;41911;52.362;4.978;2023-03-17T00:40:08;100711.17;;;8.74;37.62
55687;BME280;41911;52.362;4.978;2023-03-17T00:40:45;100716.66;;;8.76;37.67
55687;BME280;41911;52.362;4.978;2023-03-17T00:41:16;100718.42;;;8.90;37.55
55687;BME280;41911;52.362;4.978;2023-03-17T00:41:48;100718.49;;;8.88;37.66
55687;BME280;41911;52.362;4.978;2023-03-17T00:42:20;100719.73;;;8.97;37.50
55687;BME280;41911;52.362;4.978;2023-03-17T00:42:52;100720.38;;;9.03;37.42
55687;BME280;41911;52.362;4.978;2023-03-17T00:43:23;100718.74;;;9.22;37.52
55687;BME280;41911;52.362;4.978;2023-03-17T00:43:54;100720.59;;;8.96;37.44
55687;BME280;41911;52.362;4.978;2023-03-17T00:44:25;100719.18;;;8.92;37.59
55687;BME280;41911;52.362;4.978;2023-03-17T00:44:56;100718.96;;;8.80;37.66
55687;BME280;41911;52.362;4.978;2023-03-17T00:45:28;100719.81;;;8.90;37.63
55687;BME280;41911;52.362;4.978;2023-03-17T00:45:59;100720.11;;;8.83;37.52
55687;BME280;41911;52.362;4.978;2023-03-17T00:46:32;100721.02;;;8.42;38.15
55687;BME280;41911;52.362;4.978;2023-03-17T00:47:03;100721.43;;;8.69;37.87
55687;BME280;41911;52.362;4.978;2023-03-17T00:47:34;100719.17;;;8.67;37.77
55687;BME280;41911;52.362;4.978;2023-03-17T00:48:14;100718.52;;;8.61;37.90
55687;BME280;41911;52.362;4.978;2023-03-17T00:48:45;100719.35;;;8.36;38.11
55687;BME280;41911;52.362;4.978;2023-03-17T00:49:18;100718.27;;;8.33;38.14
55687;BME280;41911;52.362;4.978;2023-03-17T00:49:50;100718.94;;;8.31;38.23
55687;BME280;41911;52.362;4.978;2023-03-17T00:50:24;100718.51;;;8.68;38.02
55687;BME280;41911;52.362;4.978;2023-03-17T00:50:55;100721.29;;;8.66;38.13
55687;BME280;41911;52.362;4.978;2023-03-17T00:51:26;100719.47;;;9.04;38.16
55687;BME280;41911;52.362;4.978;2023-03-17T00:51:57;100717.50;;;8.68;37.89
55687;BME280;41911;52.362;4.978;2023-03-17T00:52:28;100718.32;;;8.38;38.19
55687;BME280;41911;52.362;4.978;2023-03-17T00:52:59;100720.47;;;8.76;38.19
55687;BME280;41911;52.362;4.978;2023-03-17T00:53:30;100718.42;;;8.89;38.34
55687;BME280;41911;52.362;4.978;2023-03-17T00:54:03;100717.46;;;8.38;38.43
55687;BME280;41911;52.362;4.978;2023-03-17T00:54:34;100718.12;;;8.76;38.39
55687;BME280;41911;52.362;4.978;2023-03-17T00:55:07;100718.17;;;8.14;38.82
55687;BME280;41911;52.362;4.978;2023-03-17T00:55:39;100719.29;;;8.34;38.79
55687;BME280;41911;52.362;4.978;2023-03-17T00:56:12;100717.77;;;8.03;38.81
55687;BME280;41911;52.362;4.978;2023-03-17T00:56:45;100715.35;;;8.28;38.81
55687;BME280;41911;52.362;4.978;2023-03-17T00:57:16;100717.39;;;8.79;38.66
55687;BME280;41911;52.362;4.978;2023-03-17T00:57:48;100717.79;;;8.70;38.40
55687;BME280;41911;52.362;4.978;2023-03-17T00:58:24;100719.25;;;8.80;38.43
55687;BME280;41911;52.362;4.978;2023-03-17T00:58:56;100720.14;;;8.79;38.57
55687;BME280;41911;52.362;4.978;2023-03-17T00:59:29;100718.48;;;8.51;38.59
55687;BME280;41911;52.362;4.978;2023-03-17T01:00:11;100720.79;;;9.01;38.41
55687;BME280;41911;52.362;4.978;2023-03-17T01:00:46;100719.18;;;8.42;38.78
55687;BME280;41911;52.362;4.978;2023-03-17T01:01:17;100717.64;;;8.27;38.58
55687;BME280;41911;52.362;4.978;2023-03-17T01:01:48;100715.90;;;8.60;38.41
55687;BME280;41911;52.362;4.978;2023-03-17T01:02:19;100717.12;;;8.96;38.41
55687;BME280;41911;52.362;4.978;2023-03-17T01:02:51;100715.57;;;8.62;38.25
55687;BME280;41911;52.362;4.978;2023-03-17T01:03:23;100712.69;;;8.72;38.42
55687;BME280;41911;52.362;4.978;2023-03-17T01:03:54;100711.39;;;9.02;38.51
55687;BME280;41911;52.362;4.978;2023-03-17T01:04:25;100708.71;;;8.68;38.48
55687;BME280;41911;52.362;4.978;2023-03-17T01:04:56;100707.87;;;8.68;38.45
55687;BME280;41911;52.362;4.978;2023-03-17T01:05:27;100703.95;;;8.43;38.34
55687;BME280;41911;52.362;4.978;2023-03-17T01:05:59;100700.58;;;8.89;38.64
55687;BME280;41911;52.362;4.978;2023-03-17T01:06:31;100696.54;;;8.33;38.37
55687;BME280;41911;52.362;4.978;2023-03-17T01:07:02;100690.67;;;8.72;38.32
55687;BME280;41911;52.362;4.978;2023-03-17T01:07:33;100688.45;;;8.43;38.27
55687;BME280;41911;52.362;4.978;2023-03-17T01:08:05;100691.86;;;8.82;38.43
55687;BME280;41911;52.362;4.978;2023-03-17T01:08:37;100689.08;;;9.01;38.48
55687;BME280;41911;52.362;4.978;2023-03-17T01:09:13;100691.88;;;8.50;38.44
55687;BME280;41911;52.362;4.978;2023-03-17T01:09:45;100690.33;;;8.75;38.44
55687;BME280;41911;52.362;4.978;2023-03-17T01:10:18;100694.05;;;8.75;38.64
55687;BME280;41911;52.362;4.978;2023-03-17T01:10:50;100693.07;;;8.59;38.68
55687;BME280;41911;52.362;4.978;2023-03-17T01:11:22;100693.39;;;8.16;38.72
55687;BME280;41911;52.362;4.978;2023-03-17T01:11:54;100694.29;;;8.91;38.35
55687;BME280;41911;52.362;4.978;2023-03-17T01:12:25;100693.45;;;8.73;38.68
55687;BME280;41911;52.362;4.978;2023-03-17T01:12:57;100691.61;;;8.51;38.45
55687;BME280;41911;52.362;4.978;2023-03-17T01:13:28;100690.77;;;8.08;38.85
55687;BME280;41911;52.362;4.978;2023-03-17T01:14:00;100692.10;;;8.04;38.77
55687;BME280;41911;52.362;4.978;2023-03-17T01:14:31;100693.54;;;8.88;38.64
55687;BME280;41911;52.362;4.978;2023-03-17T01:15:02;100693.12;;;8.50;38.60
55687;BME280;41911;52.362;4.978;2023-03-17T01:15:33;100693.17;;;8.28;38.55
55687;BME280;41911;52.362;4.978;2023-03-17T01:16:07;100694.01;;;8.79;38.37
55687;BME280;41911;52.362;4.978;2023-03-17T01:16:38;100698.09;;;9.01;38.42
55687;BME280;41911;52.362;4.978;2023-03-17T01:17:13;100699.86;;;8.56;38.31
55687;BME280;41911;52.362;4.978;2023-03-17T01:17:44;100699.85;;;8.62;38.74
55687;BME280;41911;52.362;4.978;2023-03-17T01:18:17;100702.86;;;8.48;38.97
55687;BME280;41911;52.362;4.978;2023-03-17T01:18:49;100698.15;;;8.29;39.06
55687;BME280;41911;52.362;4.978;2023-03-17T01:19:20;100700.21;;;8.62;38.98
55687;BME280;41911;52.362;4.978;2023-03-17T01:19:51;100700.34;;;7.95;39.05
55687;BME280;41911;52.362;4.978;2023-03-17T01:20:24;100700.39;;;8.55;38.84
55687;BME280;41911;52.362;4.978;2023-03-17T01:20:57;100700.63;;;8.49;39.01
55687;BME280;41911;52.362;4.978;2023-03-17T01:21:28;100699.10;;;8.75;38.90
55687;BME280;41911;52.362;4.978;2023-03-17T01:21:59;100695.46;;;8.44;38.78
55687;BME280;41911;52.362;4.978;2023-03-17T01:22:30;100693.01;;;8.78;38.75
55687;BME280;41911;52.362;4.978;2023-03-17T01:23:01;100695.44;;;8.06;38.88
55687;BME280;41911;52.362;4.978;2023-03-17T01:23:32;100695.12;;;8.67;38.72
55687;BME280;41911;52.362;4.978;2023-03-17T01:24:06;100696.66;;;8.89;38.59
55687;BME280;41911;52.362;4.978;2023-03-17T01:24:37;100698.42;;;8.65;38.44
55687;BME280;41911;52.362;4.978;2023-03-17T01:25:09;100699.58;;;8.59;38.53
55687;BME280;41911;52.362;4.978;2023-03-17T01:25:41;100701.60;;;8.45;38.89
55687;BME280;41911;52.362;4.978;2023-03-17T01:26:12;100700.57;;;8.23;39.03
55687;BME280;41911;52.362;4.978;2023-03-17T01:26:43;100699.64;;;8.50;38.87
55687;BME280;41911;52.362;4.978;2023-03-17T01:27:14;100701.25;;;8.74;38.74
55687;BME280;41911;52.362;4.978;2023-03-17T01:27:46;100696.57;;;8.32;38.76
55687;BME280;41911;52.362;4.978;2023-03-17T01:28:18;100699.38;;;8.71;38.76
55687;BME280;41911;52.362;4.978;2023-03-17T01:28:50;100702.13;;;8.74;38.76
55687;BME280;41911;52.362;4.978;2023-03-17T01:29:20;100697.09;;;8.52;38.96
55687;BME280;41911;52.362;4.978;2023-03-17T01:29:52;100701.11;;;8.43;39.06
55687;BME280;41911;52.362;4.978;2023-03-17T01:30:26;100699.79;;;8.62;38.94
55687;BME280;41911;52.362;4.978;2023-03-17T01:30:57;100701.45;;;8.47;38.85
55687;BME280;41911;52.362;4.978;2023-03-17T01:31:28;100700.54;;;8.31;38.89
55687;BME280;41911;52.362;4.978;2023-03-17T01:31:59;100700.85;;;8.28;38.93
55687;BME280;41911;52.362;4.978;2023-03-17T01:32:30;100701.17;;;8.41;39.18
55687;BME280;41911;52.362;4.978;2023-03-17T01:33:01;100701.87;;;8.27;38.99
55687;BME280;41911;52.362;4.978;2023-03-17T01:33:33;100699.80;;;8.22;39.01
55687;BME280;41911;52.362;4.978;2023-03-17T01:34:04;100697.48;;;8.50;39.03
55687;BME280;41911;52.362;4.978;2023-03-17T01:34:35;100698.17;;;8.22;39.11
55687;BME280;41911;52.362;4.978;2023-03-17T01:35:06;100700.53;;;8.70;38.48
55687;BME280;41911;52.362;4.978;2023-03-17T01:35:38;100701.27;;;8.71;38.77
55687;BME280;41911;52.362;4.978;2023-03-17T01:36:10;100700.89;;;8.58;38.65
55687;BME280;41911;52.362;4.978;2023-03-17T01:36:42;100702.47;;;8.30;38.42
55687;BME280;41911;52.362;4.978;2023-03-17T01:37:13;100703.69;;;8.98;38.37
55687;BME280;41911;52.362;4.978;2023-03-17T01:37:44;100703.51;;;8.61;38.61
55687;BME280;41911;52.362;4.978;2023-03-17T01:38:15;100703.01;;;8.61;38.77
55687;BME280;41911;52.362;4.978;2023-03-17T01:38:46;100702.57;;;8.50;38.68
55687;BME280;41911;52.362;4.978;2023-03-17T01:39:17;100702.58;;;8.46;38.74
55687;BME280;41911;52.362;4.978;2023-03-17T01:39:48;100700.49;;;8.20;38.77
55687;BME280;41911;52.362;4.978;2023-03-17T01:40:23;100695.58;;;8.66;38.87
55687;BME280;41911;52.362;4.978;2023-03-17T01:40:55;100694.57;;;8.77;38.67
55687;BME280;41911;52.362;4.978;2023-03-17T01:41:25;100691.06;;;8.57;38.60
55687;BME280;41911;52.362;4.978;2023-03-17T01:41:58;100688.86;;;8.75;38.55
55687;BME280;41911;52.362;4.978;2023-03-17T01:42:29;100683.39;;;8.98;38.55
55687;BME280;41911;52.362;4.978;2023-03-17T01:43:13;100683.45;;;9.00;38.45
55687;BME280;41911;52.362;4.978;2023-03-17T01:43:47;100684.98;;;8.49;38.79
55687;BME280;41911;52.362;4.978;2023-03-17T01:44:18;100685.42;;;8.18;38.73
55687;BME280;41911;52.362;4.978;2023-03-17T01:44:59;100686.79;;;8.74;38.69
55687;BME280;41911;52.362;4.978;2023-03-17T01:46:37;100681.26;;;8.54;38.51
55687;BME280;41911;52.362;4.978;2023-03-17T01:47:08;100678.15;;;8.28;38.73
55687;BME280;41911;52.362;4.978;2023-03-17T01:47:39;100677.99;;;8.23;38.49
55687;BME280;41911;52.362;4.978;2023-03-17T01:48:09;100678.46;;;8.05;38.68
55687;BME280;41911;52.362;4.978;2023-03-17T01:48:42;100677.80;;;8.65;38.69
55687;BME280;41911;52.362;4.978;2023-03-17T01:49:18;100677.27;;;8.22;38.76
55687;BME280;41911;52.362;4.978;2023-03-17T01:49:53;100679.35;;;8.57;38.80
55687;BME280;41911;52.362;4.978;2023-03-17T01:50:24;100679.99;;;8.40;38.70
55687;BME280;41911;52.362;4.978;2023-03-17T01:50:55;100684.26;;;8.75;38.65
55687;BME280;41911;52.362;4.978;2023-03-17T01:51:33;100683.33;;;8.56;38.58
55687;BME280;41911;52.362;4.978;2023-03-17T01:52:08;100681.64;;;8.89;38.46
55687;BME280;41911;52.362;4.978;2023-03-17T01:52:41;100681.00;;;8.27;38.44
55687;BME280;41911;52.362;4.978;2023-03-17T01:53:12;100679.77;;;8.80;38.47
55687;BME280;41911;52.362;4.978;2023-03-17T01:53:45;100679.10;;;8.59;38.44
55687;BME280;41911;52.362;4.978;2023-03-17T01:54:23;100677.37;;;8.49;38.64
55687;BME280;41911;52.362;4.978;2023-03-17T01:54:59;100679.59;;;8.09;38.49
55687;BME280;41911;52.362;4.978;2023-03-17T01:55:33;100677.46;;;8.79;38.47
55687;BME280;41911;52.362;4.978;2023-03-17T01:56:05;100677.64;;;8.88;38.38
55687;BME280;41911;52.362;4.978;2023-03-17T01:56:37;100676.90;;;8.77;38.44
55687;BME280;41911;52.362;4.978;2023-03-17T01:57:17;100674.06;;;8.72;38.36
55687;BME280;41911;52.362;4.978;2023-03-17T01:57:53;100668.48;;;8.87;38.32
55687;BME280;41911;52.362;4.978;2023-03-17T01:58:25;100666.18;;;8.66;38.43
55687;BME280;41911;52.362;4.978;2023-03-17T01:58:58;100665.65;;;8.64;38.34
55687;BME280;41911;52.362;4.978;2023-03-17T01:59:37;100666.25;;;8.96;38.34
55687;BME280;41911;52.362;4.978;2023-03-17T02:00:12;100666.36;;;8.67;38.51
55687;BME280;41911;52.362;4.978;2023-03-17T02:00:44;100664.23;;;8.65;38.34
55687;BME280;41911;52.362;4.978;2023-03-17T02:01:15;100665.33;;;8.62;38.49
55687;BME280;41911;52.362;4.978;2023-03-17T02:01:48;100661.27;;;8.26;38.49
55687;BME280;41911;52.362;4.978;2023-03-17T02:02:23;100663.49;;;8.64;38.76
55687;BME280;41911;52.362;4.978;2023-03-17T02:02:56;100659.51;;;8.21;38.56
55687;BME280;41911;52.362;4.978;2023-03-17T02:03:27;100660.99;;;8.82;38.72
55687;BME280;41911;52.362;4.978;2023-03-17T02:03:58;100659.51;;;8.61;38.81
55687;BME280;41911;52.362;4.978;2023-03-17T02:04:30;100654.17;;;8.62;38.74
55687;BME280;41911;52.362;4.978;2023-03-17T02:05:04;100652.07;;;8.18;38.74
55687;BME280;41911;52.362;4.978;2023-03-17T02:05:36;100656.57;;;8.70;38.53
55687;BME280;41911;52.362;4.978;2023-03-17T02:06:08;100657.96;;;8.54;38.98
55687;BME280;41911;52.362;4.978;2023-03-17T02:06:40;100657.99;;;8.43;39.05
55687;BME280;41911;52.362;4.978;2023-03-17T02:07:11;100659.29;;;8.33;38.80
55687;BME280;41911;52.362;4.978;2023-03-17T02:07:43;100660.72;;;8.71;38.84
55687;BME280;41911;52.362;4.978;2023-03-17T02:08:14;100665.04;;;8.61;38.82
55687;BME280;41911;52.362;4.978;2023-03-17T02:08:45;100668.60;;;8.45;39.05
55687;BME280;41911;52.362;4.978;2023-03-17T02:09:16;100667.91;;;8.55;38.98
55687;BME280;41911;52.362;4.978;2023-03-17T02:09:48;100669.43;;;8.65;38.68
55687;BME280;41911;52.362;4.978;2023-03-17T02:10:20;100666.99;;;8.70;38.79
55687;BME280;41911;52.362;4.978;2023-03-17T02:10:53;100668.75;;;8.78;38.51
55687;BME280;41911;52.362;4.978;2023-03-17T02:11:25;100670.84;;;8.84;38.59
55687;BME280;41911;52.362;4.978;2023-03-17T02:11:58;100668.35;;;8.45;38.66
55687;BME280;41911;52.362;4.978;2023-03-17T02:12:31;100663.82;;;8.85;38.69
55687;BME280;41911;52.362;4.978;2023-03-17T02:13:03;100663.98;;;8.88;38.69
55687;BME280;41911;52.362;4.978;2023-03-17T02:13:36;100663.15;;;8.81;38.82
55687;BME280;41911;52.362;4.978;2023-03-17T02:14:07;100660.94;;;8.81;38.82
55687;BME280;41911;52.362;4.978;2023-03-17T02:14:38;100665.12;;;8.22;38.85
55687;BME280;41911;52.362;4.978;2023-03-17T02:15:10;100665.16;;;8.46;38.55
55687;BME280;41911;52.362;4.978;2023-03-17T02:15:44;100663.08;;;8.81;38.76
55687;BME280;41911;52.362;4.978;2023-03-17T02:16:16;100663.11;;;8.89;38.45
55687;BME280;41911;52.362;4.978;2023-03-17T02:16:47;100660.58;;;8.94;38.30
55687;BME280;41911;52.362;4.978;2023-03-17T02:17:19;100662.01;;;8.47;38.46
55687;BME280;41911;52.362;4.978;2023-03-17T02:17:50;100662.88;;;8.07;38.73
55687;BME280;41911;52.362;4.978;2023-03-17T02:18:22;100660.49;;;8.00;38.74
55687;BME280;41911;52.362;4.978;2023-03-17T02:18:53;100659.03;;;8.41;38.57
55687;BME280;41911;52.362;4.978;2023-03-17T02:19:24;100656.96;;;8.83;38.60
55687;BME280;41911;52.362;4.978;2023-03-17T02:19:55;100657.21;;;8.75;38.61
55687;BME280;41911;52.362;4.978;2023-03-17T02:22:32;100657.74;;;8.93;38.20
55687;BME280;41911;52.362;4.978;2023-03-17T02:23:05;100656.12;;;8.72;38.30
55687;BME280;41911;52.362;4.978;2023-03-17T02:23:37;100654.43;;;9.00;38.26
55687;BME280;41911;52.362;4.978;2023-03-17T02:24:15;100653.79;;;8.36;38.03
55687;BME280;41911;52.362;4.978;2023-03-17T02:24:52;100654.32;;;9.13;37.95
55687;BME280;41911;52.362;4.978;2023-03-17T02:25:25;100653.38;;;8.62;38.39
55687;BME280;41911;52.362;4.978;2023-03-17T02:25:58;100654.31;;;8.63;38.30
55687;BME280;41911;52.362;4.978;2023-03-17T02:26:31;100653.89;;;8.33;38.30
55687;BME280;41911;52.362;4.978;2023-03-17T02:27:07;100653.70;;;8.80;38.27
55687;BME280;41911;52.362;4.978;2023-03-17T02:27:42;100655.13;;;8.58;38.39
55687;BME280;41911;52.362;4.978;2023-03-17T02:28:20;100657.26;;;8.84;38.57
55687;BME280;41911;52.362;4.978;2023-03-17T02:28:53;100660.07;;;8.15;38.40
55687;BME280;41911;52.362;4.978;2023-03-17T02:29:24;100661.20;;;8.24;38.75
55687;BME280;41911;52.362;4.978;2023-03-17T02:29:56;100665.52;;;8.55;38.61
55687;BME280;41911;52.362;4.978;2023-03-17T02:30:27;100665.84;;;8.19;38.64
55687;BME280;41911;52.362;4.978;2023-03-17T02:30:58;100665.62;;;8.74;38.65
55687;BME280;41911;52.362;4.978;2023-03-17T02:31:29;100664.99;;;8.73;38.81
55687;BME280;41911;52.362;4.978;2023-03-17T02:32:01;100660.61;;;8.48;38.46
55687;BME280;41911;52.362;4.978;2023-03-17T02:32:34;100658.05;;;8.87;38.45
55687;BME280;41911;52.362;4.978;2023-03-17T02:33:06;100656.54;;;8.51;38.49
55687;BME280;41911;52.362;4.978;2023-03-17T02:33:37;100658.46;;;9.04;38.12
55687;BME280;41911;52.362;4.978;2023-03-17T02:34:08;100655.62;;;9.00;38.18
55687;BME280;41911;52.362;4.978;2023-03-17T02:34:39;100657.12;;;8.83;38.16
55687;BME280;41911;52.362;4.978;2023-03-17T02:35:10;100653.49;;;8.95;37.92
55687;BME280;41911;52.362;4.978;2023-03-17T02:35:41;100653.05;;;9.32;37.73
55687;BME280;41911;52.362;4.978;2023-03-17T02:36:12;100652.03;;;9.04;38.00
55687;BME280;41911;52.362;4.978;2023-03-17T02:36:43;100652.96;;;9.14;38.12
55687;BME280;41911;52.362;4.978;2023-03-17T02:37:15;100649.51;;;8.84;38.03
55687;BME280;41911;52.362;4.978;2023-03-17T02:37:47;100649.10;;;8.40;38.12
55687;BME280;41911;52.362;4.978;2023-03-17T02:38:18;100648.37;;;8.70;38.22
55687;BME280;41911;52.362;4.978;2023-03-17T02:38:51;100648.15;;;8.97;38.26
55687;BME280;41911;52.362;4.978;2023-03-17T02:39:22;100647.02;;;8.92;38.35
55687;BME280;41911;52.362;4.978;2023-03-17T02:39:53;100648.61;;;8.87;38.29
55687;BME280;41911;52.362;4.978;2023-03-17T02:40:24;100647.02;;;9.08;37.98
55687;BME280;41911;52.362;4.978;2023-03-17T02:40:55;100649.01;;;8.75;38.26
55687;BME280;41911;52.362;4.978;2023-03-17T02:41:26;100648.27;;;8.79;38.08
55687;BME280;41911;52.362;4.978;2023-03-17T02:41:57;100649.88;;;8.90;38.38
55687;BME280;41911;52.362;4.978;2023-03-17T02:42:28;100648.24;;;9.00;38.28
55687;BME280;41911;52.362;4.978;2023-03-17T02:43:00;100647.50;;;8.92;38.08
55687;BME280;41911;52.362;4.978;2023-03-17T02:43:32;100647.92;;;8.47;37.97
55687;BME280;41911;52.362;4.978;2023-03-17T02:44:03;100647.46;;;8.87;37.93
55687;BME280;41911;52.362;4.978;2023-03-17T02:44:34;100649.80;;;8.89;38.07
55687;BME280;41911;52.362;4.978;2023-03-17T02:45:07;100647.32;;;8.38;38.20
55687;BME280;41911;52.362;4.978;2023-03-17T02:45:39;100647.40;;;8.81;38.03
55687;BME280;41911;52.362;4.978;2023-03-17T02:46:10;100646.32;;;8.36;38.37
55687;BME280;41911;52.362;4.978;2023-03-17T02:46:41;100648.88;;;8.97;38.35
55687;BME280;41911;52.362;4.978;2023-03-17T02:47:13;100650.66;;;9.09;38.11
55687;BME280;41911;52.362;4.978;2023-03-17T02:47:44;100652.60;;;9.34;37.82
55687;BME280;41911;52.362;4.978;2023-03-17T02:48:15;100654.06;;;9.09;37.73
55687;BME280;41911;52.362;4.978;2023-03-17T02:48:47;100656.55;;;8.72;37.84
55687;BME280;41911;52.362;4.978;2023-03-17T02:49:19;100654.45;;;9.04;38.10
55687;BME280;41911;52.362;4.978;2023-03-17T02:49:51;100655.66;;;8.91;37.78
55687;BME280;41911;52.362;4.978;2023-03-17T02:50:24;100656.11;;;8.83;37.86
55687;BME280;41911;52.362;4.978;2023-03-17T02:50:56;100656.83;;;9.05;37.78
55687;BME280;41911;52.362;4.978;2023-03-17T02:51:27;100654.77;;;9.11;37.86
55687;BME280;41911;52.362;4.978;2023-03-17T02:51:58;100655.35;;;8.78;37.83
55687;BME280;41911;52.362;4.978;2023-03-17T02:52:29;100651.67;;;8.96;37.82
55687;BME280;41911;52.362;4.978;2023-03-17T02:53:01;100653.22;;;8.82;37.70
55687;BME280;41911;52.362;4.978;2023-03-17T02:53:32;100655.90;;;8.91;37.43
55687;BME280;41911;52.362;4.978;2023-03-17T02:54:04;100655.10;;;8.91;37.79
55687;BME280;41911;52.362;4.978;2023-03-17T02:54:35;100652.27;;;9.33;37.80
55687;BME280;41911;52.362;4.978;2023-03-17T02:55:07;100653.33;;;8.65;37.98
55687;BME280;41911;52.362;4.978;2023-03-17T02:55:38;100651.79;;;8.92;37.95